createdAt,value
2022-08-02T00:01:25.891Z,98044.97
2022-08-02T00:03:56.087Z,98047.03
2022-08-02T00:06:26.465Z,98047.03
2022-08-02T00:08:56.683Z,98046.56
2022-08-02T00:11:29.616Z,98046.84
2022-08-02T00:14:00.026Z,98047.41
2022-08-02T00:16:38.284Z,98045.88
2022-08-02T00:19:08.976Z,98044.59
2022-08-02T00:21:39.135Z,98045.13
2022-08-02T00:24:29.163Z,98054.31
2022-08-02T00:27:03.896Z,98058.41
2022-08-02T00:29:42.383Z,98053.25
2022-08-02T00:32:22.358Z,98054.78
2022-08-02T00:34:52.740Z,98043.47
2022-08-02T00:37:22.911Z,98038.84
2022-08-02T00:39:53.121Z,98031.38
2022-08-02T00:42:26.596Z,98032.38
2022-08-02T00:44:56.747Z,98025.53
2022-08-02T00:47:26.939Z,98024.03
2022-08-02T00:49:57.119Z,98016.63
2022-08-02T00:52:27.989Z,98016.94
2022-08-02T00:54:58.219Z,98016.56
2022-08-02T00:57:31.054Z,98017.47
2022-08-02T01:00:01.185Z,98023.59
2022-08-02T01:02:31.699Z,98018.53
2022-08-02T01:05:01.988Z,98019.06
2022-08-02T01:07:32.139Z,98022.38
2022-08-02T01:10:03.069Z,98018.06
2022-08-02T01:12:35.881Z,98019.06
2022-08-02T01:15:11.041Z,98021.88
2022-08-02T01:17:51.971Z,98021.63
2022-08-02T01:20:46.948Z,98020.91
2022-08-02T01:23:37.402Z,98028.88
2022-08-02T01:26:36.427Z,98023.56
2022-08-02T01:29:13.517Z,98031.50
2022-08-02T01:31:50.578Z,98037.69
2022-08-02T01:34:25.741Z,98030.53
2022-08-02T01:37:04.195Z,98027.72
2022-08-02T01:39:37.899Z,98034.63
2022-08-02T01:42:09.165Z,98037.19
2022-08-02T01:44:45.556Z,98048.19
2022-08-02T01:47:25.820Z,98044.91
2022-08-02T01:50:00.901Z,98041.13
2022-08-02T01:52:36.567Z,98038.53
2022-08-02T01:55:18.901Z,98041.88
2022-08-02T01:57:53.569Z,98040.09
2022-08-02T02:00:31.868Z,98048.31
2022-08-02T02:03:04.075Z,98049.34
2022-08-02T02:05:36.358Z,98048.34
2022-08-02T02:08:10.662Z,98044.81
2022-08-02T02:10:43.306Z,98045.63
2022-08-02T02:13:20.632Z,98043.13
2022-08-02T02:16:08.092Z,98050.31
2022-08-02T02:18:43.953Z,98039.84
2022-08-02T02:21:16.840Z,98039.06
2022-08-02T02:23:47.055Z,98043.69
2022-08-02T02:26:31.113Z,98041.63
2022-08-02T02:29:04.958Z,98045.22
2022-08-02T02:31:42.088Z,98048.53
2022-08-02T02:34:17.954Z,98052.88
2022-08-02T02:36:52.514Z,98052.63
2022-08-02T02:39:26.224Z,98049.88
2022-08-02T02:41:58.227Z,98049.09
2022-08-02T02:44:30.117Z,98053.78
2022-08-02T02:47:04.604Z,98058.88
2022-08-02T02:49:38.183Z,98059.38
2022-08-02T02:52:09.866Z,98057.09
2022-08-02T02:54:41.669Z,98052.25
2022-08-02T02:57:13.478Z,98053.03
2022-08-02T02:59:49.184Z,98043.09
2022-08-02T03:02:23.858Z,98052.03
2022-08-02T03:04:57.967Z,98047.69
2022-08-02T03:07:29.341Z,98043.91
2022-08-02T03:10:00.140Z,98045.69
2022-08-02T03:12:32.592Z,98042.41
2022-08-02T03:15:05.245Z,98041.41
2022-08-02T03:17:46.838Z,98047.03
2022-08-02T03:20:19.810Z,98056.97
2022-08-02T03:22:51.460Z,98057.50
2022-08-02T03:25:22.145Z,98059.06
2022-08-02T03:27:52.367Z,98071.03
2022-08-02T03:30:24.768Z,98066.47
2022-08-02T03:32:57.641Z,98073.59
2022-08-02T03:35:27.916Z,98071.56
2022-08-02T03:38:00.512Z,98069.28
2022-08-02T03:40:31.590Z,98065.44
2022-08-02T03:43:02.971Z,98070.06
2022-08-02T03:45:34.576Z,98065.19
2022-08-02T03:48:33.670Z,98071.03
2022-08-02T03:50:59.592Z,98063.41
2022-08-02T03:53:30.160Z,98066.44
2022-08-02T03:56:00.794Z,98064.63
2022-08-02T03:58:30.975Z,98062.63
2022-08-02T04:01:02.293Z,98063.91
2022-08-02T04:03:35.120Z,98075.63
2022-08-02T04:06:05.373Z,98077.13
2022-08-02T04:08:38.507Z,98076.13
2022-08-02T04:11:22.181Z,98078.44
2022-08-02T04:13:52.360Z,98091.16
2022-08-02T04:16:37.752Z,98098.28
2022-08-02T04:19:15.036Z,98092.94
2022-08-02T04:21:52.044Z,98093.91
2022-08-02T04:24:28.174Z,98102.09
2022-08-02T04:27:06.437Z,98103.34
2022-08-02T04:29:43.866Z,98114.28
2022-08-02T04:32:17.682Z,98118.91
2022-08-02T04:35:17.828Z,98117.63
2022-08-02T04:38:08.583Z,98114.03
2022-08-02T04:40:32.945Z,98120.88
2022-08-02T04:43:03.192Z,98113.50
2022-08-02T04:45:34.449Z,98108.34
2022-08-02T04:48:05.800Z,98113.19
2022-08-02T04:50:39.052Z,98111.41
2022-08-02T04:53:09.348Z,98114.94
2022-08-02T04:55:39.598Z,98116.19
2022-08-02T04:58:30.143Z,98114.38
2022-08-02T05:01:00.082Z,98113.06
2022-08-02T05:03:30.417Z,98107.97
2022-08-02T05:06:03.739Z,98114.59
2022-08-02T05:08:52.937Z,98117.91
2022-08-02T05:11:36.027Z,98109.41
2022-08-02T05:14:07.248Z,98117.28
2022-08-02T05:16:37.491Z,98113.31
2022-08-02T05:19:08.116Z,98116.97
2022-08-02T05:21:40.954Z,98113.81
2022-08-02T05:24:12.137Z,98113.75
2022-08-02T05:26:42.367Z,98116.44
2022-08-02T05:29:12.663Z,98114.88
2022-08-02T05:31:42.883Z,98120.88
2022-08-02T05:34:13.046Z,98114.13
2022-08-02T05:36:45.884Z,98115.59
2022-08-02T05:39:19.207Z,98119.66
2022-08-02T05:41:49.970Z,98114.34
2022-08-02T05:44:20.199Z,98116.56
2022-08-02T05:46:50.347Z,98121.09
2022-08-02T05:49:20.629Z,98112.75
2022-08-02T05:52:05.750Z,98119.91
2022-08-02T05:54:44.394Z,98120.66
2022-08-02T05:57:20.902Z,98120.22
2022-08-02T06:00:05.842Z,98128.66
2022-08-02T06:03:08.062Z,98124.72
2022-08-02T06:05:43.749Z,98129.50
2022-08-02T06:08:16.659Z,98140.88
2022-08-02T06:10:50.603Z,98136.91
2022-08-02T06:13:20.828Z,98141.53
2022-08-02T06:15:58.326Z,98131.09
2022-08-02T06:18:31.218Z,98136.63
2022-08-02T06:22:31.402Z,98142.31
2022-08-02T06:24:00.347Z,98136.88
2022-08-02T06:26:31.632Z,98140.25
2022-08-02T06:29:01.987Z,98145.69
2022-08-02T06:31:32.834Z,98149.59
2022-08-02T06:34:03.024Z,98145.25
2022-08-02T06:36:41.486Z,98139.94
2022-08-02T06:39:24.050Z,98150.34
2022-08-02T06:41:58.347Z,98143.63
2022-08-02T06:44:52.966Z,98140.41
2022-08-02T06:47:24.558Z,98140.28
2022-08-02T06:49:55.139Z,98155.25
2022-08-02T06:52:29.775Z,98157.22
2022-08-02T06:55:06.327Z,98152.97
2022-08-02T06:57:37.035Z,98159.09
2022-08-02T07:00:10.084Z,98155.34
2022-08-02T07:02:40.936Z,98145.41
2022-08-02T07:05:12.663Z,98143.66
2022-08-02T07:07:42.906Z,98147.66
2022-08-02T07:10:16.468Z,98150.53
2022-08-02T07:12:47.244Z,98149.25
2022-08-02T07:15:17.450Z,98141.78
2022-08-02T07:17:47.668Z,98139.81
2022-08-02T07:20:17.915Z,98135.09
2022-08-02T07:22:48.092Z,98131.31
2022-08-02T07:25:21.002Z,98126.78
2022-08-02T07:27:51.245Z,98121.50
2022-08-02T07:30:21.189Z,98122.25
2022-08-02T07:32:51.268Z,98111.28
2022-08-02T07:35:22.605Z,98112.78
2022-08-02T07:38:02.031Z,98108.63
2022-08-02T07:40:35.402Z,98105.25
2022-08-02T07:43:05.599Z,98103.38
2022-08-02T07:45:36.313Z,98097.50
2022-08-02T07:48:25.916Z,98104.09
2022-08-02T07:50:56.129Z,98099.53
2022-08-02T07:53:49.864Z,98106.13
2022-08-02T07:56:19.324Z,98099.53
2022-08-02T07:58:49.709Z,98093.47
2022-08-02T08:01:19.916Z,98092.28
2022-08-02T08:03:49.915Z,98084.91
2022-08-02T08:06:20.263Z,98084.81
2022-08-02T08:08:59.311Z,98088.34
2022-08-02T08:11:31.836Z,98094.09
2022-08-02T08:14:02.049Z,98088.41
2022-08-02T08:16:31.974Z,98093.72
2022-08-02T08:19:02.580Z,98092.81
2022-08-02T08:21:34.892Z,98100.72
2022-08-02T08:24:05.107Z,98099.00
2022-08-02T08:26:37.607Z,98097.19
2022-08-02T08:29:07.785Z,98093.88
2022-08-02T08:31:40.309Z,98094.31
2022-08-02T08:34:10.497Z,98091.97
2022-08-02T08:36:40.800Z,98091.59
2022-08-02T08:39:11.081Z,98099.16
2022-08-02T08:41:46.945Z,98101.03
2022-08-02T08:44:17.144Z,98090.97
2022-08-02T08:46:50.879Z,98084.47
2022-08-02T08:49:30.320Z,98081.50
2022-08-02T08:52:07.675Z,98087.91
2022-08-02T08:54:44.897Z,98090.41
2022-08-02T08:57:23.042Z,98075.56
2022-08-02T08:59:53.527Z,98080.09
2022-08-02T09:02:28.103Z,98079.09
2022-08-02T09:04:58.977Z,98083.91
2022-08-02T09:07:29.132Z,98073.41
2022-08-02T09:09:59.366Z,98066.25
2022-08-02T09:12:32.237Z,98070.00
2022-08-02T09:15:07.896Z,98071.53
2022-08-02T09:17:38.077Z,98071.13
2022-08-02T09:20:13.447Z,98062.91
2022-08-02T09:22:43.655Z,98066.94
2022-08-02T09:25:18.828Z,98064.41
2022-08-02T09:27:52.141Z,98065.31
2022-08-02T09:30:22.604Z,98071.50
2022-08-02T09:32:52.758Z,98059.66
2022-08-02T09:36:06.102Z,98064.56
2022-08-02T09:38:27.877Z,98059.88
2022-08-02T09:40:58.332Z,98053.19
2022-08-02T09:43:51.959Z,98057.41
2022-08-02T09:46:37.991Z,98049.28
2022-08-02T09:49:11.584Z,98050.81
2022-08-02T09:51:50.451Z,98048.41
2022-08-02T09:54:23.512Z,98042.38
2022-08-02T09:56:56.643Z,98041.22
2022-08-02T09:59:30.984Z,98036.06
2022-08-02T10:02:04.069Z,98027.84
2022-08-02T10:04:52.929Z,98032.34
2022-08-02T10:07:24.914Z,98031.88
2022-08-02T10:09:55.532Z,98029.84
2022-08-02T10:12:26.633Z,98025.56
2022-08-02T10:14:59.613Z,98024.34
2022-08-02T10:17:29.940Z,98020.22
2022-08-02T10:20:04.234Z,98020.28
2022-08-02T10:22:36.897Z,98013.19
2022-08-02T10:25:08.538Z,98014.75
2022-08-02T10:28:02.956Z,98015.38
2022-08-02T10:30:33.705Z,98009.13
2022-08-02T10:33:06.582Z,98011.56
2022-08-02T10:35:41.417Z,98009.16
2022-08-02T10:38:14.754Z,98006.97
2022-08-02T10:40:53.383Z,97997.47
2022-08-02T10:43:50.766Z,98003.53
2022-08-02T10:46:35.726Z,98012.25
2022-08-02T10:49:38.202Z,98013.34
2022-08-02T10:52:13.675Z,98005.78
2022-08-02T10:54:45.035Z,98013.88
2022-08-02T10:57:24.892Z,98009.44
2022-08-02T10:59:59.078Z,98004.53
2022-08-02T11:02:44.530Z,97993.72
2022-08-02T11:05:18.409Z,97990.81
2022-08-02T11:07:50.911Z,97999.56
2022-08-02T11:10:48.122Z,98011.13
2022-08-02T11:13:20.974Z,98003.75
2022-08-02T11:15:57.073Z,98010.25
2022-08-02T11:19:07.113Z,98000.91
2022-08-02T11:21:38.765Z,98005.31
2022-08-02T11:24:31.682Z,98001.41
2022-08-02T11:27:03.651Z,98014.28
2022-08-02T11:29:39.926Z,98007.03
2022-08-02T11:32:12.010Z,97998.97
2022-08-02T11:34:46.716Z,97992.19
2022-08-02T11:37:17.128Z,97985.41
2022-08-02T11:39:54.606Z,97981.97
2022-08-02T11:42:25.097Z,97981.00
2022-08-02T11:44:55.439Z,97975.44
2022-08-02T11:47:26.983Z,97962.56
2022-08-02T11:50:09.130Z,97970.25
2022-08-02T11:52:40.697Z,97963.91
2022-08-02T11:55:14.153Z,97963.66
2022-08-02T11:58:03.671Z,97960.91
2022-08-02T12:00:34.539Z,97952.91
2022-08-02T12:03:04.804Z,97958.78
2022-08-02T12:06:05.023Z,97950.97
2022-08-02T12:08:29.466Z,97948.25
2022-08-02T12:11:04.218Z,97950.00
2022-08-02T12:13:56.708Z,97945.16
2022-08-02T12:16:40.472Z,97948.72
2022-08-02T12:19:23.726Z,97947.31
2022-08-02T12:22:17.736Z,97948.84
2022-08-02T12:24:51.021Z,97942.78
2022-08-02T12:27:36.902Z,97935.78
2022-08-02T12:30:11.245Z,97944.97
2022-08-02T12:32:42.418Z,97933.66
2022-08-02T12:35:26.322Z,97940.25
2022-08-02T12:37:59.811Z,97941.59
2022-08-02T12:40:36.020Z,97933.63
2022-08-02T12:43:08.957Z,97925.97
2022-08-02T12:45:53.175Z,97923.50
2022-08-02T12:48:39.140Z,97929.28
2022-08-02T12:51:24.483Z,97931.81
2022-08-02T12:54:00.328Z,97935.47
2022-08-02T12:56:33.593Z,97932.59
2022-08-02T12:59:03.877Z,97922.56
2022-08-02T13:01:34.312Z,97926.81
2022-08-02T13:04:10.698Z,97917.47
2022-08-02T13:06:45.423Z,97909.03
2022-08-02T13:09:20.382Z,97901.25
2022-08-02T13:11:50.596Z,97905.78
2022-08-02T13:14:20.973Z,97911.34
2022-08-02T13:16:51.644Z,97905.78
2022-08-02T13:19:21.878Z,97901.38
2022-08-02T13:22:02.556Z,97907.50
2022-08-02T13:24:41.053Z,97907.13
2022-08-02T13:27:28.679Z,97908.59
2022-08-02T13:30:00.232Z,97908.59
2022-08-02T13:32:31.780Z,97902.88
2022-08-02T13:35:02.532Z,97900.78
2022-08-02T13:37:40.048Z,97894.41
2022-08-02T13:40:22.707Z,97885.34
2022-08-02T13:42:53.710Z,97892.84
2022-08-02T13:45:24.055Z,97885.25
2022-08-02T13:48:04.481Z,97876.63
2022-08-02T13:50:36.118Z,97882.59
2022-08-02T13:53:06.395Z,97871.78
2022-08-02T13:55:43.353Z,97870.06
2022-08-02T13:58:13.794Z,97867.09
2022-08-02T14:00:43.945Z,97861.66
2022-08-02T14:03:14.209Z,97859.53
2022-08-02T14:05:47.434Z,97862.31
2022-08-02T14:08:20.181Z,97860.06
2022-08-02T14:10:54.646Z,97852.44
2022-08-02T14:13:24.876Z,97855.97
2022-08-02T14:15:55.203Z,97848.66
2022-08-02T14:18:25.822Z,97849.75
2022-08-02T14:20:56.251Z,97840.91
2022-08-02T14:23:50.189Z,97844.91
2022-08-02T14:26:27.710Z,97857.34
2022-08-02T14:28:58.415Z,97857.31
2022-08-02T14:31:28.649Z,97857.94
2022-08-02T14:33:58.930Z,97856.38
2022-08-02T14:36:29.189Z,97849.31
2022-08-02T14:38:59.904Z,97850.84
2022-08-02T14:41:58.121Z,97854.16
2022-08-02T14:44:24.149Z,97845.91
2022-08-02T14:46:54.900Z,97850.53
2022-08-02T14:49:26.961Z,97850.22
2022-08-02T14:51:57.734Z,97853.19
2022-08-02T14:54:31.617Z,97844.41
2022-08-02T14:57:06.710Z,97838.22
2022-08-02T14:59:36.891Z,97838.31
2022-08-02T15:02:14.856Z,97846.81
2022-08-02T15:04:45.633Z,97845.78
2022-08-02T15:07:17.191Z,97846.47
2022-08-02T15:09:47.632Z,97849.69
2022-08-02T15:12:20.496Z,97848.22
2022-08-02T15:14:50.913Z,97842.94
2022-08-02T15:17:21.082Z,97837.66
2022-08-02T15:19:59.581Z,97846.56
2022-08-02T15:22:32.171Z,97841.03
2022-08-02T15:25:03.379Z,97842.25
2022-08-02T15:27:36.261Z,97835.28
2022-08-02T15:30:10.828Z,97837.59
2022-08-02T15:32:41.002Z,97832.97
2022-08-02T15:35:23.826Z,97835.78
2022-08-02T15:37:54.414Z,97826.91
2022-08-02T15:40:24.951Z,97830.97
2022-08-02T15:42:57.793Z,97827.16
2022-08-02T15:45:28.296Z,97826.50
2022-08-02T15:47:58.560Z,97827.19
2022-08-02T15:50:28.762Z,97826.56
2022-08-02T15:52:58.986Z,97827.00
2022-08-02T15:55:29.182Z,97824.25
2022-08-02T15:58:16.994Z,97826.28
2022-08-02T16:00:51.215Z,97824.09
2022-08-02T16:03:21.500Z,97822.50
2022-08-02T16:05:51.681Z,97821.63
2022-08-02T16:08:21.876Z,97829.34
2022-08-02T16:10:52.238Z,97832.56
2022-08-02T16:13:41.248Z,97834.06
2022-08-02T16:16:24.351Z,97832.81
2022-08-02T16:18:55.080Z,97834.81
2022-08-02T16:21:26.344Z,97828.06
2022-08-02T16:24:02.364Z,97829.28
2022-08-02T16:26:34.884Z,97829.28
2022-08-02T16:29:07.969Z,97826.97
2022-08-02T16:31:42.642Z,97832.81
2022-08-02T16:34:13.239Z,97821.19
2022-08-02T16:36:43.464Z,97830.72
2022-08-02T16:39:13.738Z,97822.72
2022-08-02T16:41:51.337Z,97817.88
2022-08-02T16:44:29.538Z,97826.47
2022-08-02T16:47:02.160Z,97823.31
2022-08-02T16:50:03.941Z,97827.59
2022-08-02T16:52:22.718Z,97828.47
2022-08-02T16:54:54.305Z,97825.63
2022-08-02T16:57:24.456Z,97823.84
2022-08-02T17:00:17.842Z,97820.09
2022-08-02T17:02:48.048Z,97824.22
2022-08-02T17:05:18.550Z,97832.00
2022-08-02T17:08:07.506Z,97830.28
2022-08-02T17:10:42.263Z,97831.25
2022-08-02T17:13:12.990Z,97832.03
2022-08-02T17:16:08.002Z,97822.63
2022-08-02T17:18:42.646Z,97829.50
2022-08-02T17:21:14.154Z,97830.91
2022-08-02T17:24:07.787Z,97832.94
2022-08-02T17:26:39.368Z,97835.03
2022-08-02T17:29:16.257Z,97834.50
2022-08-02T17:32:02.617Z,97831.38
2022-08-02T17:34:40.063Z,97836.50
2022-08-02T17:37:19.367Z,97839.69
2022-08-02T17:39:51.824Z,97834.88
2022-08-02T17:42:24.751Z,97833.53
2022-08-02T17:45:01.087Z,97839.41
2022-08-02T17:48:04.405Z,97845.44
2022-08-02T17:50:36.212Z,97840.94
2022-08-02T17:53:06.546Z,97845.88
2022-08-02T17:55:42.320Z,97844.25
2022-08-02T17:58:12.884Z,97843.94
2022-08-02T18:00:45.008Z,97843.94
2022-08-02T18:03:18.147Z,97839.72
2022-08-02T18:05:55.259Z,97836.41
2022-08-02T18:08:26.073Z,97829.22
2022-08-02T18:10:57.141Z,97837.63
2022-08-02T18:13:32.925Z,97836.56
2022-08-02T18:16:06.322Z,97845.41
2022-08-02T18:18:54.358Z,97842.09
2022-08-02T18:21:24.666Z,97839.56
2022-08-02T18:23:58.418Z,97846.13
2022-08-02T18:26:30.161Z,97845.81
2022-08-02T18:29:04.264Z,97845.75
2022-08-02T18:31:39.446Z,97846.50
2022-08-02T18:34:12.934Z,97845.28
2022-08-02T18:36:47.211Z,97856.03
2022-08-02T18:39:18.493Z,97856.31
2022-08-02T18:41:48.659Z,97853.44
2022-08-02T18:44:21.050Z,97853.72
2022-08-02T18:46:51.722Z,97850.41
2022-08-02T18:49:30.071Z,97864.16
2022-08-02T18:52:16.346Z,97862.72
2022-08-02T18:55:01.498Z,97861.47
2022-08-02T18:58:01.888Z,97865.78
2022-08-02T19:00:25.538Z,97867.41
2022-08-02T19:02:56.902Z,97868.25
2022-08-02T19:05:51.563Z,97869.84
2022-08-02T19:08:25.400Z,97872.19
2022-08-02T19:10:57.393Z,97873.44
2022-08-02T19:13:27.682Z,97879.97
2022-08-02T19:15:57.705Z,97870.03
2022-08-02T19:18:30.227Z,97885.09
2022-08-02T19:21:05.692Z,97885.66
2022-08-02T19:23:37.626Z,97883.81
2022-08-02T19:26:25.896Z,97877.63
2022-08-02T19:28:56.206Z,97880.72
2022-08-02T19:31:34.662Z,97886.47
2022-08-02T19:34:19.503Z,97884.44
2022-08-02T19:36:57.960Z,97891.13
2022-08-02T19:39:28.981Z,97881.72
2022-08-02T19:42:01.015Z,97889.75
2022-08-02T19:44:30.996Z,97892.06
2022-08-02T19:47:01.188Z,97896.31
2022-08-02T19:49:40.312Z,97889.38
2022-08-02T19:52:21.170Z,97893.75
2022-08-02T19:54:55.902Z,97900.25
2022-08-02T19:57:28.595Z,97893.84
2022-08-02T20:00:05.618Z,97911.69
2022-08-02T20:02:46.660Z,97907.19
2022-08-02T20:05:26.763Z,97915.16
2022-08-02T20:07:59.949Z,97911.06
2022-08-02T20:10:33.481Z,97921.13
2022-08-02T20:13:04.009Z,97916.78
2022-08-02T20:15:55.832Z,97920.81
2022-08-02T20:18:26.909Z,97913.25
2022-08-02T20:20:59.207Z,97917.81
2022-08-02T20:23:34.251Z,97918.22
2022-08-02T20:26:06.361Z,97919.53
2022-08-02T20:28:39.244Z,97913.91
2022-08-02T20:31:10.762Z,97909.00
2022-08-02T20:33:56.165Z,97920.34
2022-08-02T20:36:27.196Z,97917.72
2022-08-02T20:39:00.127Z,97916.59
2022-08-02T20:41:36.866Z,97920.41
2022-08-02T20:44:30.785Z,97914.94
2022-08-02T20:47:01.386Z,97922.28
2022-08-02T20:49:40.426Z,97931.00
2022-08-02T20:52:23.317Z,97923.44
2022-08-02T20:54:56.931Z,97924.75
2022-08-02T20:57:36.229Z,97927.78
2022-08-02T21:00:20.800Z,97923.03
2022-08-02T21:02:51.483Z,97920.22
2022-08-02T21:05:26.810Z,97927.78
2022-08-02T21:08:15.344Z,97926.44
2022-08-02T21:10:50.459Z,97928.16
2022-08-02T21:13:26.376Z,97925.88
2022-08-02T21:16:01.379Z,97921.91
2022-08-02T21:18:40.606Z,97921.34
2022-08-02T21:21:14.639Z,97925.13
2022-08-02T21:23:48.789Z,97923.78
2022-08-02T21:26:30.371Z,97914.72
2022-08-02T21:29:03.693Z,97918.69
2022-08-02T21:31:36.116Z,97917.50
2022-08-02T21:34:21.887Z,97916.34
2022-08-02T21:36:57.273Z,97911.63
2022-08-02T21:39:28.571Z,97916.91
2022-08-02T21:42:01.992Z,97916.72
2022-08-02T21:44:32.409Z,97909.34
2022-08-02T21:47:02.636Z,97907.28
2022-08-02T21:50:08.599Z,97906.31
2022-08-02T21:52:25.971Z,97910.44
2022-08-02T21:54:57.975Z,97916.47
2022-08-02T21:57:34.692Z,97913.06
2022-08-02T22:00:07.114Z,97911.91
2022-08-02T22:02:39.149Z,97917.91
2022-08-02T22:05:14.251Z,97921.69
2022-08-02T22:07:45.603Z,97914.13
2022-08-02T22:10:16.167Z,97914.66
2022-08-02T22:12:49.143Z,97915.25
2022-08-02T22:15:35.813Z,97912.00
2022-08-02T22:18:06.646Z,97921.25
2022-08-02T22:20:44.491Z,97923.31
2022-08-02T22:23:22.653Z,97921.63
2022-08-02T22:26:06.921Z,97917.63
2022-08-02T22:28:50.514Z,97928.34
2022-08-02T22:31:24.860Z,97934.16
2022-08-02T22:34:37.329Z,97929.41
2022-08-02T22:37:02.394Z,97929.75
2022-08-02T22:39:36.410Z,97927.28
2022-08-02T22:42:26.386Z,97931.22
2022-08-02T22:44:59.174Z,97937.41
2022-08-02T22:47:29.730Z,97929.31
2022-08-02T22:50:11.872Z,97930.44
2022-08-02T22:52:42.259Z,97933.81
2022-08-02T22:55:17.504Z,97935.47
2022-08-02T22:57:56.888Z,97933.75
2022-08-02T23:00:41.293Z,97940.31
2022-08-02T23:03:11.687Z,97934.81
2022-08-02T23:05:41.867Z,97938.19
2022-08-02T23:08:12.053Z,97932.34
2022-08-02T23:10:42.309Z,97927.56
2022-08-02T23:13:12.547Z,97932.81
2022-08-02T23:15:58.166Z,97934.47
2022-08-02T23:18:41.839Z,97942.94
2022-08-02T23:21:12.033Z,97940.44
2022-08-02T23:23:42.241Z,97936.44
2022-08-02T23:26:12.620Z,97933.97
2022-08-02T23:28:42.823Z,97928.66
2022-08-02T23:31:38.441Z,97934.88
2022-08-02T23:34:08.960Z,97933.59
2022-08-02T23:36:39.205Z,97931.84
2022-08-02T23:39:09.350Z,97934.81
2022-08-02T23:41:39.559Z,97933.28
2022-08-02T23:44:14.401Z,97935.94
2022-08-02T23:46:49.188Z,97933.22
2022-08-02T23:49:19.973Z,97933.34
2022-08-02T23:51:50.522Z,97936.19
2022-08-02T23:54:21.142Z,97932.41
2022-08-02T23:56:51.082Z,97934.59
2022-08-02T23:59:21.307Z,97935.50
